sensor_id;sensor_type;location;lat;lon;timestamp;P1;durP1;ratioP1;P2;durP2;ratioP2
35971;SDS011;22052;0.000;0.000;2022-07-12T00:01:58;6.35;;;1.55;;
35971;SDS011;22052;0.000;0.000;2022-07-12T00:04:33;3.70;;;1.05;;
35971;SDS011;22052;0.000;0.000;2022-07-12T00:07:11;5.80;;;1.45;;
35971;SDS011;22052;0.000;0.000;2022-07-12T00:10:04;6.07;;;1.20;;
35971;SDS011;22052;0.000;0.000;2022-07-12T00:12:47;4.28;;;1.13;;
35971;SDS011;22052;0.000;0.000;2022-07-12T00:18:16;5.00;;;0.95;;
35971;SDS011;22052;0.000;0.000;2022-07-12T00:20:46;6.28;;;1.55;;
35971;SDS011;22052;0.000;0.000;2022-07-12T00:23:15;3.92;;;1.00;;
35971;SDS011;22052;0.000;0.000;2022-07-12T00:25:49;4.60;;;1.17;;
35971;SDS011;22052;0.000;0.000;2022-07-12T00:28:21;3.38;;;1.27;;
35971;SDS011;22052;0.000;0.000;2022-07-12T00:30:58;4.80;;;1.08;;
35971;SDS011;22052;0.000;0.000;2022-07-12T00:33:33;4.32;;;0.90;;
35971;SDS011;22052;0.000;0.000;2022-07-12T00:36:29;3.85;;;0.90;;
35971;SDS011;22052;0.000;0.000;2022-07-12T00:39:03;4.40;;;1.05;;
35971;SDS011;22052;0.000;0.000;2022-07-12T00:41:40;3.25;;;1.10;;
35971;SDS011;22052;0.000;0.000;2022-07-12T00:59:56;3.10;;;0.90;;
35971;SDS011;22052;0.000;0.000;2022-07-12T01:02:33;3.90;;;0.90;;
35971;SDS011;22052;0.000;0.000;2022-07-12T01:05:10;2.38;;;0.70;;
35971;SDS011;22052;0.000;0.000;2022-07-12T01:07:41;2.67;;;0.80;;
35971;SDS011;22052;0.000;0.000;2022-07-12T01:10:16;3.22;;;1.02;;
35971;SDS011;22052;0.000;0.000;2022-07-12T01:12:50;2.50;;;0.90;;
35971;SDS011;22052;0.000;0.000;2022-07-12T01:15:19;3.83;;;0.95;;
35971;SDS011;22052;0.000;0.000;2022-07-12T01:17:48;5.07;;;1.20;;
35971;SDS011;22052;0.000;0.000;2022-07-12T01:20:25;4.38;;;1.00;;
35971;SDS011;22052;0.000;0.000;2022-07-12T01:22:56;3.00;;;0.70;;
35971;SDS011;22052;0.000;0.000;2022-07-12T01:25:30;3.70;;;0.60;;
35971;SDS011;22052;0.000;0.000;2022-07-12T01:27:59;3.40;;;0.82;;
35971;SDS011;22052;0.000;0.000;2022-07-12T01:30:27;5.72;;;0.90;;
35971;SDS011;22052;0.000;0.000;2022-07-12T01:32:59;2.47;;;0.80;;
35971;SDS011;22052;0.000;0.000;2022-07-12T01:35:34;2.55;;;0.70;;
35971;SDS011;22052;0.000;0.000;2022-07-12T01:38:09;3.88;;;1.00;;
35971;SDS011;22052;0.000;0.000;2022-07-12T01:40:39;3.22;;;0.80;;
35971;SDS011;22052;0.000;0.000;2022-07-12T01:43:33;2.47;;;0.70;;
35971;SDS011;22052;0.000;0.000;2022-07-12T01:46:10;2.60;;;0.75;;
35971;SDS011;22052;0.000;0.000;2022-07-12T01:49:06;2.88;;;1.10;;
35971;SDS011;22052;0.000;0.000;2022-07-12T01:51:43;3.50;;;0.85;;
35971;SDS011;22052;0.000;0.000;2022-07-12T01:54:11;2.33;;;0.70;;
35971;SDS011;22052;0.000;0.000;2022-07-12T01:56:48;2.58;;;0.73;;
35971;SDS011;22052;0.000;0.000;2022-07-12T01:59:25;4.18;;;0.90;;
35971;SDS011;22052;0.000;0.000;2022-07-12T02:01:59;5.10;;;0.75;;
35971;SDS011;22052;0.000;0.000;2022-07-12T02:04:37;0.80;;;0.50;;
35971;SDS011;22052;0.000;0.000;2022-07-12T02:07:10;2.95;;;0.80;;
35971;SDS011;22052;0.000;0.000;2022-07-12T02:09:42;5.13;;;1.00;;
35971;SDS011;22052;0.000;0.000;2022-07-12T02:12:16;3.30;;;0.88;;
35971;SDS011;22052;0.000;0.000;2022-07-12T02:14:49;2.13;;;0.70;;
35971;SDS011;22052;0.000;0.000;2022-07-12T02:17:26;2.35;;;0.80;;
35971;SDS011;22052;0.000;0.000;2022-07-12T02:20:03;1.80;;;0.50;;
35971;SDS011;22052;0.000;0.000;2022-07-12T02:22:56;1.48;;;0.60;;
35971;SDS011;22052;0.000;0.000;2022-07-12T02:25:29;3.45;;;0.70;;
35971;SDS011;22052;0.000;0.000;2022-07-12T02:30:50;2.95;;;0.80;;
35971;SDS011;22052;0.000;0.000;2022-07-12T02:33:47;1.98;;;0.77;;
35971;SDS011;22052;0.000;0.000;2022-07-12T02:39:22;2.42;;;0.60;;
35971;SDS011;22052;0.000;0.000;2022-07-12T02:42:01;2.13;;;0.75;;
35971;SDS011;22052;0.000;0.000;2022-07-12T02:44:49;2.92;;;0.70;;
35971;SDS011;22052;0.000;0.000;2022-07-12T02:47:32;2.90;;;0.80;;
35971;SDS011;22052;0.000;0.000;2022-07-12T02:50:19;1.42;;;0.60;;
35971;SDS011;22052;0.000;0.000;2022-07-12T02:56:06;3.25;;;0.50;;
35971;SDS011;22052;0.000;0.000;2022-07-12T03:02:00;4.15;;;0.80;;
35971;SDS011;22052;0.000;0.000;2022-07-12T03:04:45;2.58;;;0.70;;
35971;SDS011;22052;0.000;0.000;2022-07-12T03:07:19;1.83;;;0.70;;
35971;SDS011;22052;0.000;0.000;2022-07-12T03:10:07;2.30;;;0.80;;
35971;SDS011;22052;0.000;0.000;2022-07-12T03:12:46;2.20;;;0.60;;
35971;SDS011;22052;0.000;0.000;2022-07-12T03:15:31;2.25;;;0.65;;
35971;SDS011;22052;0.000;0.000;2022-07-12T03:18:08;2.58;;;0.70;;
35971;SDS011;22052;0.000;0.000;2022-07-12T03:20:36;2.13;;;0.73;;
35971;SDS011;22052;0.000;0.000;2022-07-12T03:23:08;3.30;;;0.60;;
35971;SDS011;22052;0.000;0.000;2022-07-12T03:25:41;1.33;;;0.60;;
35971;SDS011;22052;0.000;0.000;2022-07-12T03:28:13;1.90;;;0.65;;
35971;SDS011;22052;0.000;0.000;2022-07-12T03:30:46;1.50;;;0.60;;
35971;SDS011;22052;0.000;0.000;2022-07-12T03:33:15;0.93;;;0.50;;
35971;SDS011;22052;0.000;0.000;2022-07-12T03:35:42;2.15;;;0.70;;
35971;SDS011;22052;0.000;0.000;2022-07-12T03:38:11;1.75;;;0.50;;
35971;SDS011;22052;0.000;0.000;2022-07-12T03:53:03;2.03;;;0.60;;
35971;SDS011;22052;0.000;0.000;2022-07-12T03:55:47;3.42;;;0.90;;
35971;SDS011;22052;0.000;0.000;2022-07-12T03:59:00;1.60;;;0.70;;
35971;SDS011;22052;0.000;0.000;2022-07-12T04:01:44;2.03;;;0.63;;
35971;SDS011;22052;0.000;0.000;2022-07-12T04:04:23;1.08;;;0.40;;
35971;SDS011;22052;0.000;0.000;2022-07-12T04:06:59;2.58;;;0.65;;
35971;SDS011;22052;0.000;0.000;2022-07-12T04:09:40;2.22;;;0.73;;
35971;SDS011;22052;0.000;0.000;2022-07-12T04:12:14;3.58;;;1.02;;
35971;SDS011;22052;0.000;0.000;2022-07-12T04:15:02;1.77;;;0.47;;
35971;SDS011;22052;0.000;0.000;2022-07-12T04:17:35;1.25;;;0.60;;
35971;SDS011;22052;0.000;0.000;2022-07-12T04:20:04;2.25;;;0.68;;
35971;SDS011;22052;0.000;0.000;2022-07-12T04:22:37;4.28;;;0.60;;
35971;SDS011;22052;0.000;0.000;2022-07-12T04:25:19;1.92;;;0.60;;
35971;SDS011;22052;0.000;0.000;2022-07-12T04:27:55;4.07;;;0.63;;
35971;SDS011;22052;0.000;0.000;2022-07-12T04:30:52;2.78;;;0.60;;
35971;SDS011;22052;0.000;0.000;2022-07-12T04:33:23;1.40;;;0.50;;
35971;SDS011;22052;0.000;0.000;2022-07-12T04:36:01;3.13;;;0.60;;
35971;SDS011;22052;0.000;0.000;2022-07-12T04:38:33;3.17;;;0.80;;
35971;SDS011;22052;0.000;0.000;2022-07-12T04:41:00;1.80;;;0.55;;
35971;SDS011;22052;0.000;0.000;2022-07-12T04:43:35;2.88;;;0.80;;
35971;SDS011;22052;0.000;0.000;2022-07-12T04:46:12;2.95;;;0.80;;
35971;SDS011;22052;0.000;0.000;2022-07-12T04:48:54;2.97;;;0.75;;
35971;SDS011;22052;0.000;0.000;2022-07-12T04:51:40;4.60;;;0.90;;
35971;SDS011;22052;0.000;0.000;2022-07-12T04:54:09;5.15;;;0.80;;
35971;SDS011;22052;0.000;0.000;2022-07-12T04:56:41;1.08;;;0.55;;
35971;SDS011;22052;0.000;0.000;2022-07-12T04:59:13;7.38;;;1.10;;
35971;SDS011;22052;0.000;0.000;2022-07-12T05:01:42;10.15;;;1.10;;
35971;SDS011;22052;0.000;0.000;2022-07-12T05:04:12;5.80;;;0.80;;
35971;SDS011;22052;0.000;0.000;2022-07-12T05:06:52;9.05;;;1.10;;
35971;SDS011;22052;0.000;0.000;2022-07-12T05:09:20;10.27;;;1.10;;
35971;SDS011;22052;0.000;0.000;2022-07-12T05:11:48;7.65;;;1.20;;
35971;SDS011;22052;0.000;0.000;2022-07-12T05:14:25;7.05;;;1.02;;
35971;SDS011;22052;0.000;0.000;2022-07-12T05:17:03;9.38;;;0.98;;
35971;SDS011;22052;0.000;0.000;2022-07-12T05:19:43;7.93;;;0.93;;
35971;SDS011;22052;0.000;0.000;2022-07-12T05:22:17;10.88;;;0.93;;
35971;SDS011;22052;0.000;0.000;2022-07-12T05:24:47;8.35;;;1.05;;
35971;SDS011;22052;0.000;0.000;2022-07-12T05:27:19;7.18;;;1.20;;
35971;SDS011;22052;0.000;0.000;2022-07-12T05:29:55;6.68;;;1.20;;
35971;SDS011;22052;0.000;0.000;2022-07-12T05:32:26;6.72;;;0.88;;
35971;SDS011;22052;0.000;0.000;2022-07-12T05:35:11;4.70;;;0.70;;
35971;SDS011;22052;0.000;0.000;2022-07-12T05:37:51;6.22;;;1.00;;
35971;SDS011;22052;0.000;0.000;2022-07-12T05:40:34;6.72;;;1.17;;
35971;SDS011;22052;0.000;0.000;2022-07-12T05:43:08;7.40;;;1.10;;
35971;SDS011;22052;0.000;0.000;2022-07-12T05:45:41;10.80;;;1.73;;
35971;SDS011;22052;0.000;0.000;2022-07-12T05:48:11;6.80;;;0.95;;
35971;SDS011;22052;0.000;0.000;2022-07-12T05:50:43;7.80;;;1.15;;
35971;SDS011;22052;0.000;0.000;2022-07-12T05:53:17;7.60;;;0.90;;
35971;SDS011;22052;0.000;0.000;2022-07-12T05:56:04;5.82;;;1.30;;
35971;SDS011;22052;0.000;0.000;2022-07-12T05:58:37;4.65;;;1.10;;
35971;SDS011;22052;0.000;0.000;2022-07-12T06:01:09;13.95;;;1.20;;
35971;SDS011;22052;0.000;0.000;2022-07-12T06:03:40;10.00;;;1.50;;
35971;SDS011;22052;0.000;0.000;2022-07-12T06:06:15;8.13;;;1.05;;
35971;SDS011;22052;0.000;0.000;2022-07-12T06:08:53;9.38;;;1.35;;
35971;SDS011;22052;0.000;0.000;2022-07-12T06:11:28;9.13;;;1.05;;
35971;SDS011;22052;0.000;0.000;2022-07-12T06:14:04;4.82;;;1.00;;
35971;SDS011;22052;0.000;0.000;2022-07-12T06:16:33;11.88;;;1.00;;
35971;SDS011;22052;0.000;0.000;2022-07-12T06:19:04;8.95;;;0.95;;
35971;SDS011;22052;0.000;0.000;2022-07-12T06:21:34;4.97;;;1.13;;
35971;SDS011;22052;0.000;0.000;2022-07-12T06:24:05;8.20;;;1.20;;
35971;SDS011;22052;0.000;0.000;2022-07-12T06:26:41;8.98;;;1.17;;
35971;SDS011;22052;0.000;0.000;2022-07-12T06:29:11;6.63;;;1.00;;
35971;SDS011;22052;0.000;0.000;2022-07-12T06:31:41;4.22;;;1.00;;
35971;SDS011;22052;0.000;0.000;2022-07-12T06:34:13;5.80;;;1.02;;
35971;SDS011;22052;0.000;0.000;2022-07-12T06:36:44;4.60;;;0.90;;
35971;SDS011;22052;0.000;0.000;2022-07-12T06:39:16;6.97;;;1.08;;
35971;SDS011;22052;0.000;0.000;2022-07-12T06:41:46;5.05;;;0.93;;
35971;SDS011;22052;0.000;0.000;2022-07-12T06:44:15;6.82;;;1.10;;
35971;SDS011;22052;0.000;0.000;2022-07-12T06:46:54;3.03;;;0.80;;
35971;SDS011;22052;0.000;0.000;2022-07-12T06:49:26;4.25;;;0.75;;
35971;SDS011;22052;0.000;0.000;2022-07-12T06:52:10;6.93;;;1.10;;
35971;SDS011;22052;0.000;0.000;2022-07-12T06:57:56;7.10;;;0.90;;
35971;SDS011;22052;0.000;0.000;2022-07-12T07:00:38;7.43;;;1.05;;
35971;SDS011;22052;0.000;0.000;2022-07-12T07:03:23;9.05;;;1.38;;
35971;SDS011;22052;0.000;0.000;2022-07-12T07:09:53;8.50;;;1.02;;
35971;SDS011;22052;0.000;0.000;2022-07-12T07:12:46;7.25;;;1.20;;
35971;SDS011;22052;0.000;0.000;2022-07-12T07:15:27;5.75;;;1.23;;
35971;SDS011;22052;0.000;0.000;2022-07-12T07:18:08;4.32;;;1.08;;
35971;SDS011;22052;0.000;0.000;2022-07-12T07:20:43;6.53;;;1.15;;
35971;SDS011;22052;0.000;0.000;2022-07-12T07:23:15;5.93;;;0.90;;
35971;SDS011;22052;0.000;0.000;2022-07-12T07:25:47;7.25;;;1.05;;
35971;SDS011;22052;0.000;0.000;2022-07-12T07:28:27;8.27;;;1.20;;
35971;SDS011;22052;0.000;0.000;2022-07-12T07:30:56;4.80;;;1.15;;
35971;SDS011;22052;0.000;0.000;2022-07-12T07:33:31;11.73;;;1.20;;
35971;SDS011;22052;0.000;0.000;2022-07-12T07:36:15;7.65;;;1.60;;
35971;SDS011;22052;0.000;0.000;2022-07-12T07:41:52;9.88;;;1.42;;
35971;SDS011;22052;0.000;0.000;2022-07-12T07:50:13;12.00;;;1.38;;
35971;SDS011;22052;0.000;0.000;2022-07-12T07:52:52;8.95;;;1.10;;
35971;SDS011;22052;0.000;0.000;2022-07-12T07:55:24;6.03;;;1.40;;
35971;SDS011;22052;0.000;0.000;2022-07-12T07:57:57;9.68;;;1.80;;
35971;SDS011;22052;0.000;0.000;2022-07-12T08:00:29;5.07;;;1.25;;
35971;SDS011;22052;0.000;0.000;2022-07-12T08:03:11;8.00;;;1.42;;
35971;SDS011;22052;0.000;0.000;2022-07-12T08:05:47;11.40;;;1.67;;
35971;SDS011;22052;0.000;0.000;2022-07-12T08:08:19;11.88;;;1.65;;
35971;SDS011;22052;0.000;0.000;2022-07-12T08:10:51;9.38;;;1.15;;
35971;SDS011;22052;0.000;0.000;2022-07-12T08:13:40;4.93;;;1.08;;
35971;SDS011;22052;0.000;0.000;2022-07-12T08:16:14;10.00;;;1.20;;
35971;SDS011;22052;0.000;0.000;2022-07-12T08:18:57;8.05;;;1.30;;
35971;SDS011;22052;0.000;0.000;2022-07-12T08:21:33;6.32;;;1.23;;
35971;SDS011;22052;0.000;0.000;2022-07-12T08:24:12;9.23;;;1.25;;
35971;SDS011;22052;0.000;0.000;2022-07-12T08:26:45;6.25;;;1.00;;
35971;SDS011;22052;0.000;0.000;2022-07-12T08:29:25;9.48;;;1.27;;
35971;SDS011;22052;0.000;0.000;2022-07-12T08:31:55;7.15;;;1.35;;
35971;SDS011;22052;0.000;0.000;2022-07-12T08:34:24;7.60;;;1.30;;
35971;SDS011;22052;0.000;0.000;2022-07-12T08:36:57;7.97;;;1.38;;
35971;SDS011;22052;0.000;0.000;2022-07-12T08:39:28;7.82;;;1.30;;
35971;SDS011;22052;0.000;0.000;2022-07-12T08:42:19;6.35;;;1.10;;
35971;SDS011;22052;0.000;0.000;2022-07-12T08:44:57;9.32;;;1.50;;
35971;SDS011;22052;0.000;0.000;2022-07-12T08:47:30;11.10;;;1.33;;
35971;SDS011;22052;0.000;0.000;2022-07-12T08:56:41;11.65;;;1.40;;
35971;SDS011;22052;0.000;0.000;2022-07-12T08:59:27;9.25;;;1.17;;
35971;SDS011;22052;0.000;0.000;2022-07-12T09:02:16;8.75;;;1.40;;
35971;SDS011;22052;0.000;0.000;2022-07-12T09:05:13;5.22;;;0.98;;
35971;SDS011;22052;0.000;0.000;2022-07-12T09:08:06;6.03;;;1.33;;
35971;SDS011;22052;0.000;0.000;2022-07-12T09:11:00;6.78;;;0.98;;
35971;SDS011;22052;0.000;0.000;2022-07-12T09:16:41;7.75;;;1.17;;
35971;SDS011;22052;0.000;0.000;2022-07-12T09:19:23;7.25;;;1.38;;
35971;SDS011;22052;0.000;0.000;2022-07-12T09:25:15;5.68;;;1.20;;
35971;SDS011;22052;0.000;0.000;2022-07-12T09:27:55;7.82;;;1.30;;
35971;SDS011;22052;0.000;0.000;2022-07-12T09:30:47;7.47;;;1.00;;
35971;SDS011;22052;0.000;0.000;2022-07-12T09:33:21;8.55;;;1.13;;
35971;SDS011;22052;0.000;0.000;2022-07-12T09:36:08;8.82;;;1.20;;
35971;SDS011;22052;0.000;0.000;2022-07-12T09:42:26;7.88;;;1.33;;
35971;SDS011;22052;0.000;0.000;2022-07-12T09:45:01;6.45;;;1.05;;
35971;SDS011;22052;0.000;0.000;2022-07-12T09:47:57;9.27;;;1.30;;
35971;SDS011;22052;0.000;0.000;2022-07-12T09:50:35;7.85;;;1.30;;
35971;SDS011;22052;0.000;0.000;2022-07-12T09:53:31;5.70;;;1.02;;
35971;SDS011;22052;0.000;0.000;2022-07-12T09:56:20;9.48;;;1.30;;
35971;SDS011;22052;0.000;0.000;2022-07-12T09:59:09;5.65;;;1.30;;
35971;SDS011;22052;0.000;0.000;2022-07-12T10:02:14;7.13;;;1.25;;
35971;SDS011;22052;0.000;0.000;2022-07-12T10:05:09;8.52;;;1.20;;
35971;SDS011;22052;0.000;0.000;2022-07-12T10:07:46;5.50;;;1.30;;
35971;SDS011;22052;0.000;0.000;2022-07-12T10:10:33;5.93;;;1.13;;
35971;SDS011;22052;0.000;0.000;2022-07-12T10:13:23;7.53;;;1.20;;
35971;SDS011;22052;0.000;0.000;2022-07-12T10:15:57;5.35;;;0.95;;
35971;SDS011;22052;0.000;0.000;2022-07-12T10:18:41;6.25;;;1.25;;
35971;SDS011;22052;0.000;0.000;2022-07-12T10:21:21;9.68;;;1.30;;
35971;SDS011;22052;0.000;0.000;2022-07-12T10:30:13;7.38;;;1.10;;
35971;SDS011;22052;0.000;0.000;2022-07-12T10:32:47;8.75;;;1.40;;
35971;SDS011;22052;0.000;0.000;2022-07-12T10:35:29;10.85;;;1.85;;
35971;SDS011;22052;0.000;0.000;2022-07-12T10:41:17;5.70;;;1.25;;
35971;SDS011;22052;0.000;0.000;2022-07-12T10:44:08;9.65;;;1.38;;
35971;SDS011;22052;0.000;0.000;2022-07-12T10:49:50;7.47;;;1.35;;
35971;SDS011;22052;0.000;0.000;2022-07-12T10:52:32;5.55;;;1.15;;
35971;SDS011;22052;0.000;0.000;2022-07-12T10:57:50;10.68;;;1.70;;
35971;SDS011;22052;0.000;0.000;2022-07-12T11:00:38;10.90;;;1.40;;
35971;SDS011;22052;0.000;0.000;2022-07-12T11:03:44;12.52;;;1.35;;
35971;SDS011;22052;0.000;0.000;2022-07-12T11:06:23;3.85;;;1.08;;
35971;SDS011;22052;0.000;0.000;2022-07-12T11:09:10;7.30;;;1.60;;
35971;SDS011;22052;0.000;0.000;2022-07-12T11:11:46;9.93;;;1.65;;
35971;SDS011;22052;0.000;0.000;2022-07-12T11:14:24;11.07;;;1.60;;
35971;SDS011;22052;0.000;0.000;2022-07-12T11:17:05;7.18;;;1.55;;
35971;SDS011;22052;0.000;0.000;2022-07-12T11:19:42;9.30;;;1.30;;
35971;SDS011;22052;0.000;0.000;2022-07-12T11:22:24;6.78;;;1.27;;
35971;SDS011;22052;0.000;0.000;2022-07-12T11:25:21;10.32;;;1.80;;
35971;SDS011;22052;0.000;0.000;2022-07-12T11:27:54;7.22;;;1.10;;
35971;SDS011;22052;0.000;0.000;2022-07-12T11:30:32;10.13;;;1.35;;
35971;SDS011;22052;0.000;0.000;2022-07-12T11:33:16;7.45;;;1.25;;
35971;SDS011;22052;0.000;0.000;2022-07-12T11:35:52;10.23;;;1.48;;
35971;SDS011;22052;0.000;0.000;2022-07-12T11:38:27;8.30;;;1.40;;
35971;SDS011;22052;0.000;0.000;2022-07-12T11:47:21;9.43;;;1.52;;
35971;SDS011;22052;0.000;0.000;2022-07-12T11:53:21;10.60;;;1.45;;
35971;SDS011;22052;0.000;0.000;2022-07-12T11:56:05;9.43;;;1.23;;
35971;SDS011;22052;0.000;0.000;2022-07-12T11:58:54;8.48;;;1.40;;
35971;SDS011;22052;0.000;0.000;2022-07-12T12:01:36;7.95;;;1.58;;
35971;SDS011;22052;0.000;0.000;2022-07-12T12:04:13;9.30;;;1.52;;
35971;SDS011;22052;0.000;0.000;2022-07-12T12:07:02;6.35;;;1.63;;
35971;SDS011;22052;0.000;0.000;2022-07-12T12:12:43;9.18;;;1.40;;
35971;SDS011;22052;0.000;0.000;2022-07-12T12:15:25;7.95;;;1.52;;
35971;SDS011;22052;0.000;0.000;2022-07-12T12:18:49;8.10;;;1.08;;
35971;SDS011;22052;0.000;0.000;2022-07-12T12:21:25;8.93;;;1.30;;
35971;SDS011;22052;0.000;0.000;2022-07-12T12:24:13;6.38;;;1.20;;
35971;SDS011;22052;0.000;0.000;2022-07-12T12:26:52;7.65;;;1.45;;
35971;SDS011;22052;0.000;0.000;2022-07-12T12:32:22;7.80;;;1.38;;
35971;SDS011;22052;0.000;0.000;2022-07-12T12:35:11;9.88;;;1.20;;
35971;SDS011;22052;0.000;0.000;2022-07-12T12:40:25;10.98;;;1.65;;
35971;SDS011;22052;0.000;0.000;2022-07-12T12:43:11;8.00;;;1.50;;
35971;SDS011;22052;0.000;0.000;2022-07-12T12:45:49;6.93;;;1.20;;
35971;SDS011;22052;0.000;0.000;2022-07-12T12:48:25;5.95;;;1.25;;
35971;SDS011;22052;0.000;0.000;2022-07-12T12:51:06;7.63;;;1.45;;
35971;SDS011;22052;0.000;0.000;2022-07-12T12:53:54;4.53;;;1.42;;
35971;SDS011;22052;0.000;0.000;2022-07-12T12:56:25;9.18;;;1.35;;
35971;SDS011;22052;0.000;0.000;2022-07-12T12:58:58;11.48;;;1.50;;
35971;SDS011;22052;0.000;0.000;2022-07-12T13:01:32;6.38;;;1.45;;
35971;SDS011;22052;0.000;0.000;2022-07-12T13:04:01;6.05;;;1.73;;
35971;SDS011;22052;0.000;0.000;2022-07-12T13:06:51;9.38;;;1.48;;
35971;SDS011;22052;0.000;0.000;2022-07-12T13:09:25;7.72;;;1.33;;
35971;SDS011;22052;0.000;0.000;2022-07-12T13:11:57;4.90;;;1.30;;
35971;SDS011;22052;0.000;0.000;2022-07-12T13:14:26;6.82;;;1.60;;
35971;SDS011;22052;0.000;0.000;2022-07-12T13:17:00;7.68;;;1.70;;
35971;SDS011;22052;0.000;0.000;2022-07-12T13:19:43;10.23;;;1.48;;
35971;SDS011;22052;0.000;0.000;2022-07-12T13:22:14;8.55;;;1.50;;
35971;SDS011;22052;0.000;0.000;2022-07-12T13:24:44;12.65;;;1.85;;
35971;SDS011;22052;0.000;0.000;2022-07-12T13:27:25;8.35;;;1.38;;
35971;SDS011;22052;0.000;0.000;2022-07-12T13:29:53;8.63;;;1.75;;
35971;SDS011;22052;0.000;0.000;2022-07-12T13:32:25;11.35;;;1.60;;
35971;SDS011;22052;0.000;0.000;2022-07-12T13:34:54;9.35;;;1.52;;
35971;SDS011;22052;0.000;0.000;2022-07-12T13:40:15;6.65;;;1.20;;
35971;SDS011;22052;0.000;0.000;2022-07-12T13:42:53;4.30;;;1.13;;
35971;SDS011;22052;0.000;0.000;2022-07-12T13:45:23;10.68;;;1.65;;
35971;SDS011;22052;0.000;0.000;2022-07-12T13:47:52;7.20;;;1.50;;
35971;SDS011;22052;0.000;0.000;2022-07-12T13:50:25;7.93;;;1.40;;
35971;SDS011;22052;0.000;0.000;2022-07-12T13:52:56;4.95;;;1.45;;
35971;SDS011;22052;0.000;0.000;2022-07-12T13:55:27;6.15;;;1.50;;
35971;SDS011;22052;0.000;0.000;2022-07-12T14:00:50;11.52;;;1.50;;
35971;SDS011;22052;0.000;0.000;2022-07-12T14:03:22;10.57;;;1.40;;
35971;SDS011;22052;0.000;0.000;2022-07-12T14:05:54;12.88;;;2.00;;
35971;SDS011;22052;0.000;0.000;2022-07-12T14:08:31;11.57;;;1.40;;
35971;SDS011;22052;0.000;0.000;2022-07-12T14:10:59;8.90;;;1.70;;
35971;SDS011;22052;0.000;0.000;2022-07-12T14:13:28;6.78;;;1.70;;
35971;SDS011;22052;0.000;0.000;2022-07-12T14:15:58;11.10;;;1.55;;
35971;SDS011;22052;0.000;0.000;2022-07-12T14:18:30;6.60;;;1.58;;
35971;SDS011;22052;0.000;0.000;2022-07-12T14:20:58;7.68;;;1.52;;
35971;SDS011;22052;0.000;0.000;2022-07-12T14:23:27;7.95;;;1.40;;
35971;SDS011;22052;0.000;0.000;2022-07-12T14:25:58;8.18;;;1.55;;
35971;SDS011;22052;0.000;0.000;2022-07-12T14:28:30;8.45;;;1.30;;
35971;SDS011;22052;0.000;0.000;2022-07-12T14:31:08;13.88;;;1.92;;
35971;SDS011;22052;0.000;0.000;2022-07-12T14:33:37;11.63;;;2.42;;
35971;SDS011;22052;0.000;0.000;2022-07-12T14:36:05;9.73;;;1.92;;
35971;SDS011;22052;0.000;0.000;2022-07-12T14:38:33;8.65;;;1.25;;
35971;SDS011;22052;0.000;0.000;2022-07-12T14:41:02;8.38;;;1.52;;
35971;SDS011;22052;0.000;0.000;2022-07-12T14:43:30;10.65;;;1.77;;
35971;SDS011;22052;0.000;0.000;2022-07-12T14:46:00;4.45;;;1.35;;
35971;SDS011;22052;0.000;0.000;2022-07-12T14:48:29;10.80;;;1.60;;
35971;SDS011;22052;0.000;0.000;2022-07-12T14:50:57;10.32;;;1.63;;
35971;SDS011;22052;0.000;0.000;2022-07-12T14:53:25;11.15;;;1.58;;
35971;SDS011;22052;0.000;0.000;2022-07-12T14:55:52;11.82;;;2.20;;
35971;SDS011;22052;0.000;0.000;2022-07-12T14:58:20;21.20;;;2.03;;
35971;SDS011;22052;0.000;0.000;2022-07-12T15:00:54;8.70;;;1.88;;
35971;SDS011;22052;0.000;0.000;2022-07-12T15:05:49;13.48;;;1.85;;
35971;SDS011;22052;0.000;0.000;2022-07-12T15:08:22;5.88;;;1.38;;
35971;SDS011;22052;0.000;0.000;2022-07-12T15:10:55;11.30;;;1.60;;
35971;SDS011;22052;0.000;0.000;2022-07-12T15:13:32;8.13;;;1.52;;
35971;SDS011;22052;0.000;0.000;2022-07-12T15:16:01;12.57;;;1.80;;
35971;SDS011;22052;0.000;0.000;2022-07-12T15:18:33;10.18;;;2.13;;
35971;SDS011;22052;0.000;0.000;2022-07-12T15:21:03;7.88;;;1.52;;
35971;SDS011;22052;0.000;0.000;2022-07-12T15:23:32;9.45;;;1.60;;
35971;SDS011;22052;0.000;0.000;2022-07-12T15:26:02;10.43;;;1.73;;
35971;SDS011;22052;0.000;0.000;2022-07-12T15:28:31;8.20;;;1.50;;
35971;SDS011;22052;0.000;0.000;2022-07-12T15:31:01;9.20;;;1.67;;
35971;SDS011;22052;0.000;0.000;2022-07-12T15:33:31;6.60;;;1.40;;
35971;SDS011;22052;0.000;0.000;2022-07-12T15:36:06;6.22;;;1.75;;
35971;SDS011;22052;0.000;0.000;2022-07-12T15:38:33;8.77;;;1.90;;
35971;SDS011;22052;0.000;0.000;2022-07-12T15:41:00;9.38;;;1.63;;
35971;SDS011;22052;0.000;0.000;2022-07-12T15:43:28;10.18;;;1.67;;
35971;SDS011;22052;0.000;0.000;2022-07-12T15:45:57;6.85;;;1.45;;
35971;SDS011;22052;0.000;0.000;2022-07-12T15:48:29;9.07;;;1.50;;
35971;SDS011;22052;0.000;0.000;2022-07-12T15:50:59;12.05;;;1.90;;
35971;SDS011;22052;0.000;0.000;2022-07-12T15:53:29;9.38;;;1.27;;
35971;SDS011;22052;0.000;0.000;2022-07-12T15:55:59;7.18;;;1.60;;
35971;SDS011;22052;0.000;0.000;2022-07-12T15:58:32;10.48;;;1.48;;
35971;SDS011;22052;0.000;0.000;2022-07-12T16:01:09;15.00;;;1.70;;
35971;SDS011;22052;0.000;0.000;2022-07-12T16:03:40;7.85;;;2.00;;
35971;SDS011;22052;0.000;0.000;2022-07-12T16:06:14;10.02;;;1.65;;
35971;SDS011;22052;0.000;0.000;2022-07-12T16:08:42;8.52;;;1.60;;
35971;SDS011;22052;0.000;0.000;2022-07-12T16:11:11;9.50;;;1.65;;
35971;SDS011;22052;0.000;0.000;2022-07-12T16:13:40;9.32;;;1.90;;
35971;SDS011;22052;0.000;0.000;2022-07-12T16:16:10;11.27;;;1.65;;
35971;SDS011;22052;0.000;0.000;2022-07-12T16:18:48;8.75;;;1.77;;
35971;SDS011;22052;0.000;0.000;2022-07-12T16:21:15;9.20;;;1.80;;
35971;SDS011;22052;0.000;0.000;2022-07-12T16:23:45;8.60;;;1.70;;
35971;SDS011;22052;0.000;0.000;2022-07-12T16:26:13;13.70;;;1.88;;
35971;SDS011;22052;0.000;0.000;2022-07-12T16:28:42;16.83;;;2.10;;
35971;SDS011;22052;0.000;0.000;2022-07-12T16:31:10;6.68;;;1.75;;
35971;SDS011;22052;0.000;0.000;2022-07-12T16:33:38;7.80;;;1.70;;
35971;SDS011;22052;0.000;0.000;2022-07-12T16:36:08;11.05;;;1.90;;
35971;SDS011;22052;0.000;0.000;2022-07-12T16:38:37;12.88;;;1.98;;
35971;SDS011;22052;0.000;0.000;2022-07-12T16:41:04;14.20;;;2.22;;
35971;SDS011;22052;0.000;0.000;2022-07-12T16:43:36;13.25;;;2.47;;
35971;SDS011;22052;0.000;0.000;2022-07-12T16:46:06;9.43;;;2.03;;
35971;SDS011;22052;0.000;0.000;2022-07-12T16:48:33;8.65;;;1.90;;
35971;SDS011;22052;0.000;0.000;2022-07-12T16:51:04;10.18;;;2.58;;
35971;SDS011;22052;0.000;0.000;2022-07-12T16:53:53;8.48;;;1.92;;
35971;SDS011;22052;0.000;0.000;2022-07-12T16:56:28;8.73;;;1.77;;
35971;SDS011;22052;0.000;0.000;2022-07-12T16:58:56;10.13;;;1.60;;
35971;SDS011;22052;0.000;0.000;2022-07-12T17:01:29;12.38;;;2.25;;
35971;SDS011;22052;0.000;0.000;2022-07-12T17:04:01;13.73;;;2.20;;
35971;SDS011;22052;0.000;0.000;2022-07-12T17:06:31;9.55;;;2.10;;
35971;SDS011;22052;0.000;0.000;2022-07-12T17:09:00;11.48;;;1.95;;
35971;SDS011;22052;0.000;0.000;2022-07-12T17:11:28;13.07;;;1.83;;
35971;SDS011;22052;0.000;0.000;2022-07-12T17:14:01;10.57;;;1.77;;
35971;SDS011;22052;0.000;0.000;2022-07-12T17:16:30;11.30;;;1.90;;
35971;SDS011;22052;0.000;0.000;2022-07-12T17:19:00;16.50;;;2.25;;
35971;SDS011;22052;0.000;0.000;2022-07-12T17:21:31;14.50;;;2.45;;
35971;SDS011;22052;0.000;0.000;2022-07-12T17:24:02;8.70;;;2.10;;
35971;SDS011;22052;0.000;0.000;2022-07-12T17:26:40;16.80;;;2.72;;
35971;SDS011;22052;0.000;0.000;2022-07-12T17:29:16;13.68;;;1.88;;
35971;SDS011;22052;0.000;0.000;2022-07-12T17:31:56;6.93;;;2.13;;
35971;SDS011;22052;0.000;0.000;2022-07-12T17:34:29;9.45;;;2.28;;
35971;SDS011;22052;0.000;0.000;2022-07-12T17:36:58;7.43;;;1.73;;
35971;SDS011;22052;0.000;0.000;2022-07-12T17:39:31;9.40;;;1.92;;
35971;SDS011;22052;0.000;0.000;2022-07-12T17:42:03;15.40;;;2.50;;
35971;SDS011;22052;0.000;0.000;2022-07-12T17:44:36;11.15;;;1.95;;
35971;SDS011;22052;0.000;0.000;2022-07-12T17:47:31;7.88;;;1.77;;
35971;SDS011;22052;0.000;0.000;2022-07-12T17:49:59;11.00;;;2.15;;